Meteorología y climatología de Navarra
Datos de la estación - Meteo Navarra

Estación de Iñarbegi GN

Altitud 585 m.


Datos desde el 14/08/2019 hasta el 15/08/2019 en horario solar
Los datos son PROVISIONALES

Anterior Página 1 de 1 Siguiente Descargar: Formato para Excel 2000 o superior   Formato csv   Formato para OpenOffice Calc
Fecha Temperatura Humedad relativa Radiación global Insolación Precipitación Vel. viento 10 m Vel. viento 10 m Dir. viento 10 m
ºC % W/m² s l/m² m/s km/h º
14/08/2019 0:00 11.3 96 - - - - 0.0 - - - - - -
14/08/2019 0:10 11.4 97 - - - - 0.0 - - - - - -
14/08/2019 0:20 11.2 97 - - - - 0.0 - - - - - -
14/08/2019 0:30 11.1 99 - - - - 0.0 - - - - - -
14/08/2019 0:40 10.8 99 - - - - 0.0 - - - - - -
14/08/2019 0:50 10.4 100 - - - - 0.0 - - - - - -
14/08/2019 1:00 10.4 100 - - - - 0.0 - - - - - -
14/08/2019 1:10 10.3 100 - - - - 0.0 - - - - - -
14/08/2019 1:20 10.3 100 - - - - 0.0 - - - - - -
14/08/2019 1:30 10.0 100 - - - - 0.0 - - - - - -
14/08/2019 1:40 9.8 100 - - - - 0.0 - - - - - -
14/08/2019 1:50 10.0 100 - - - - 0.0 - - - - - -
14/08/2019 2:00 10.3 100 - - - - 0.0 - - - - - -
14/08/2019 2:10 10.3 100 - - - - 0.0 - - - - - -
14/08/2019 2:20 10.3 100 - - - - 0.0 - - - - - -
14/08/2019 2:30 10.0 100 - - - - 0.0 - - - - - -
14/08/2019 2:40 9.6 100 - - - - 0.0 - - - - - -
14/08/2019 2:50 9.8 100 - - - - 0.0 - - - - - -
14/08/2019 3:00 9.6 100 - - - - 0.0 - - - - - -
14/08/2019 3:10 9.6 100 - - - - 0.0 - - - - - -
14/08/2019 3:20 9.6 100 - - - - 0.0 - - - - - -
14/08/2019 3:30 9.9 100 - - - - 0.0 - - - - - -
14/08/2019 3:40 9.8 100 - - - - 0.0 - - - - - -
14/08/2019 3:50 9.6 100 - - - - 0.0 - - - - - -
14/08/2019 4:00 9.6 100 - - - - 0.0 - - - - - -
14/08/2019 4:10 9.4 100 - - - - 0.0 - - - - - -
14/08/2019 4:20 9.1 100 - - - - 0.0 - - - - - -
14/08/2019 4:30 9.3 99 - - - - 0.0 - - - - - -
14/08/2019 4:40 9.5 96 - - - - 0.0 - - - - - -
14/08/2019 4:50 9.2 97 - - - - 0.0 - - - - - -
14/08/2019 5:00 9.3 96 - - - - 0.0 - - - - - -
14/08/2019 5:10 10.1 93 - - - - 0.0 - - - - - -
14/08/2019 5:20 10.0 93 - - - - 0.0 - - - - - -
14/08/2019 5:30 10.2 90 - - - - 0.0 - - - - - -
14/08/2019 5:40 10.0 93 - - - - 0.0 - - - - - -
14/08/2019 5:50 9.9 96 - - - - 0.0 - - - - - -
14/08/2019 6:00 9.7 96 - - - - 0.0 - - - - - -
14/08/2019 6:10 9.8 96 - - - - 0.0 - - - - - -
14/08/2019 6:20 10.0 95 - - - - 0.0 - - - - - -
14/08/2019 6:30 10.6 91 - - - - 0.0 - - - - - -
14/08/2019 6:40 10.9 88 - - - - 0.0 - - - - - -
14/08/2019 6:50 11.5 85 - - - - 0.0 - - - - - -
14/08/2019 7:00 12.4 79 - - - - 0.0 - - - - - -
14/08/2019 7:10 12.9 81 - - - - 0.0 - - - - - -
14/08/2019 7:20 13.4 81 - - - - 0.0 - - - - - -
14/08/2019 7:30 14.2 78 - - - - 0.0 - - - - - -
14/08/2019 7:40 14.8 74 - - - - 0.0 - - - - - -
14/08/2019 7:50 15.8 62 - - - - 0.0 - - - - - -
14/08/2019 8:00 16.7 63 - - - - 0.0 - - - - - -
14/08/2019 8:10 17.1 69 - - - - 0.0 - - - - - -
14/08/2019 8:20 17.0 69 - - - - 0.0 - - - - - -
14/08/2019 8:30 18.0 68 - - - - 0.0 - - - - - -
14/08/2019 8:40 18.8 59 - - - - 0.0 - - - - - -
14/08/2019 8:50 19.0 64 - - - - 0.0 - - - - - -
14/08/2019 9:00 18.8 63 - - - - 0.0 - - - - - -
14/08/2019 9:10 19.3 61 - - - - 0.0 - - - - - -
14/08/2019 9:20 20.0 58 - - - - 0.0 - - - - - -
14/08/2019 9:30 20.7 54 - - - - 0.0 - - - - - -
14/08/2019 9:40 21.5 46 - - - - 0.0 - - - - - -
14/08/2019 9:50 22.2 41 - - - - 0.0 - - - - - -
14/08/2019 10:00 22.3 42 - - - - 0.0 - - - - - -
14/08/2019 10:10 22.3 43 - - - - 0.0 - - - - - -
14/08/2019 10:20 22.2 41 - - - - 0.0 - - - - - -
14/08/2019 10:30 22.7 41 - - - - 0.0 - - - - - -
14/08/2019 10:40 22.9 40 - - - - 0.0 - - - - - -
14/08/2019 10:50 22.9 44 - - - - 0.0 - - - - - -
14/08/2019 11:00 23.4 43 - - - - 0.0 - - - - - -
14/08/2019 11:10 23.5 45 - - - - 0.0 - - - - - -
14/08/2019 11:20 23.5 46 - - - - 0.0 - - - - - -
14/08/2019 11:30 23.4 48 - - - - 0.0 - - - - - -
14/08/2019 11:40 23.3 48 - - - - 0.0 - - - - - -
14/08/2019 11:50 23.7 49 - - - - 0.0 - - - - - -
14/08/2019 12:00 23.6 48 - - - - 0.0 - - - - - -
14/08/2019 12:10 24.0 49 - - - - 0.0 - - - - - -
14/08/2019 12:20 24.3 48 - - - - 0.0 - - - - - -
14/08/2019 12:30 24.1 47 - - - - 0.0 - - - - - -
14/08/2019 12:40 24.4 48 - - - - 0.0 - - - - - -
14/08/2019 12:50 23.8 48 - - - - 0.0 - - - - - -
14/08/2019 13:00 24.7 48 - - - - 0.0 - - - - - -
14/08/2019 13:10 24.5 50 - - - - 0.0 - - - - - -
14/08/2019 13:20 24.7 48 - - - - 0.0 - - - - - -
14/08/2019 13:30 24.8 47 - - - - 0.0 - - - - - -
14/08/2019 13:40 24.5 46 - - - - 0.0 - - - - - -
14/08/2019 13:50 24.9 49 - - - - 0.0 - - - - - -
14/08/2019 14:00 24.9 45 - - - - 0.0 - - - - - -
14/08/2019 14:10 25.2 50 - - - - 0.0 - - - - - -
14/08/2019 14:20 25.2 52 - - - - 0.0 - - - - - -
14/08/2019 14:30 24.8 54 - - - - 0.0 - - - - - -
14/08/2019 14:40 24.7 54 - - - - 0.0 - - - - - -
14/08/2019 14:50 24.5 53 - - - - 0.0 - - - - - -
14/08/2019 15:00 24.0 53 - - - - 0.0 - - - - - -
14/08/2019 15:10 24.2 52 - - - - 0.0 - - - - - -
14/08/2019 15:20 24.2 51 - - - - 0.0 - - - - - -
14/08/2019 15:30 24.5 51 - - - - 0.0 - - - - - -
14/08/2019 15:40 24.0 51 - - - - 0.0 - - - - - -
14/08/2019 15:50 23.7 51 - - - - 0.0 - - - - - -
14/08/2019 16:00 23.8 54 - - - - 0.0 - - - - - -
14/08/2019 16:10 23.7 54 - - - - 0.0 - - - - - -
14/08/2019 16:20 23.7 54 - - - - 0.0 - - - - - -
14/08/2019 16:30 23.4 52 - - - - 0.0 - - - - - -
14/08/2019 16:40 22.9 56 - - - - 0.0 - - - - - -
14/08/2019 16:50 22.6 59 - - - - 0.0 - - - - - -
14/08/2019 17:00 21.5 64 - - - - 0.0 - - - - - -
14/08/2019 17:10 20.9 65 - - - - 0.0 - - - - - -
14/08/2019 17:20 20.6 67 - - - - 0.0 - - - - - -
14/08/2019 17:30 20.1 70 - - - - 0.0 - - - - - -
14/08/2019 17:40 19.7 72 - - - - 0.0 - - - - - -
14/08/2019 17:50 19.4 74 - - - - 0.0 - - - - - -
14/08/2019 18:00 19.2 72 - - - - 0.0 - - - - - -
14/08/2019 18:10 18.9 72 - - - - 0.0 - - - - - -
14/08/2019 18:20 18.5 73 - - - - 0.0 - - - - - -
14/08/2019 18:30 18.4 73 - - - - 0.0 - - - - - -
14/08/2019 18:40 18.4 75 - - - - 0.0 - - - - - -
14/08/2019 18:50 18.1 77 - - - - 0.0 - - - - - -
14/08/2019 19:00 18.0 78 - - - - 0.0 - - - - - -
14/08/2019 19:10 17.9 75 - - - - 0.0 - - - - - -
14/08/2019 19:20 17.7 75 - - - - 0.0 - - - - - -
14/08/2019 19:30 17.7 73 - - - - 0.0 - - - - - -
14/08/2019 19:40 17.8 76 - - - - 0.0 - - - - - -
14/08/2019 19:50 17.5 77 - - - - 0.0 - - - - - -
14/08/2019 20:00 17.6 75 - - - - 0.0 - - - - - -
14/08/2019 20:10 17.5 74 - - - - 0.0 - - - - - -
14/08/2019 20:20 17.5 75 - - - - 0.0 - - - - - -
14/08/2019 20:30 17.4 77 - - - - 0.0 - - - - - -
14/08/2019 20:40 17.3 79 - - - - 0.0 - - - - - -
14/08/2019 20:50 17.0 83 - - - - 0.0 - - - - - -
14/08/2019 21:00 16.8 85 - - - - 0.0 - - - - - -
14/08/2019 21:10 16.8 85 - - - - 0.0 - - - - - -
14/08/2019 21:20 16.8 86 - - - - 0.0 - - - - - -
14/08/2019 21:30 16.7 87 - - - - 0.0 - - - - - -
14/08/2019 21:40 16.8 87 - - - - 0.0 - - - - - -
14/08/2019 21:50 16.3 91 - - - - 0.1 - - - - - -
14/08/2019 22:00 15.8 96 - - - - 0.1 - - - - - -
14/08/2019 22:10 15.7 100 - - - - 0.0 - - - - - -
14/08/2019 22:20 15.6 100 - - - - 0.0 - - - - - -
14/08/2019 22:30 15.5 100 - - - - 0.1 - - - - - -
14/08/2019 22:40 15.5 100 - - - - 0.0 - - - - - -
14/08/2019 22:50 15.4 100 - - - - 0.0 - - - - - -
14/08/2019 23:00 15.5 100 - - - - 0.1 - - - - - -
14/08/2019 23:10 15.5 100 - - - - 0.0 - - - - - -
14/08/2019 23:20 15.5 100 - - - - 0.0 - - - - - -
14/08/2019 23:30 15.6 100 - - - - 0.0 - - - - - -
14/08/2019 23:40 15.6 100 - - - - 0.0 - - - - - -
14/08/2019 23:50 15.7 100 - - - - 0.0 - - - - - -
Anterior Página 1 de 1 Siguiente

NOTA: Tipo de datos según el color:
   - Valores diarios o 10 minutos correctos
   - Valores diarios calculados a partir de un número de datos 10 minutos menor que 144 y mayor que 120, o de un número de datos semihorarios menor que 48 y mayor que 40 (caso de las estaciones de Riegos de Navarra y del MARM)
   - Valores diez minutos estimados


Contacto        Enlaces        Aviso legal